Latest Weather Observations for Jandakot

IDW60901

Issued at 9:41 pm WST Tuesday 4 August 2015 (issued every 10 minutes, with the page automatically refreshed every 10 minutes)

About weather observations | Map of Perth area stations | Latest observations for Perth area | Other Formats
Station Details ID: 009172 Name: JANDAKOT AERO Lat: -32.10 Lon: 115.88 Height: 30.0 m
Data from the previous 72 hours. | See also: Recent months at Jandakot
Date/Time
WST
Tmp

°C
App
Tmp
°C
Dew
Point
°C
Rel
Hum
%
Delta-T

°C
Wind Press
QNH
hPa
Press
MSL
hPa
Rain
since
9 am
mm
Dir
 
Spd
km/h
Gust
km/h
Spd
kts
Gust
kts
04/09:30pm 6.7 4.3 4.4 85 1.0 SSE 6 7 3 4 1031.8 1031.9 0.0
04/09:00pm 7.7 4.8 4.7 81 1.3 SE 9 11 5 6 1031.8 1031.9 0.0
04/08:30pm 8.3 5.5 5.1 80 1.4 SE 9 11 5 6 1031.8 1031.9 0.0
04/08:00pm 9.3 6.6 5.5 77 1.7 ESE 9 11 5 6 1031.8 1031.9 0.0
04/07:30pm 9.6 7.3 5.9 78 1.7 ESE 7 9 4 5 1031.8 1031.9 0.0
04/07:00pm 10.7 8.0 5.7 71 2.3 ESE 9 11 5 6 1031.7 1031.8 0.0
04/06:30pm 11.9 8.9 6.1 67 2.7 ESE 11 13 6 7 1031.6 1031.7 0.0
04/06:00pm 13.0 10.0 6.2 63 3.2 ESE 11 13 6 7 1031.2 1031.3 0.0
04/05:30pm 14.8 11.0 6.0 55 4.2 ESE 15 17 8 9 1031.0 1031.1 0.0
04/05:00pm 15.8 11.6 5.7 51 4.8 ESE 17 22 9 12 1030.8 1030.9 0.0
04/04:30pm 16.7 12.5 5.6 48 5.4 ESE 17 20 9 11 1030.6 1030.7 0.0
04/04:00pm 16.8 12.6 5.5 47 5.4 ESE 17 22 9 12 1030.7 1030.8 0.0
04/03:30pm 17.2 12.9 5.3 45 5.7 ESE 17 24 9 13 1030.7 1030.8 0.0
04/03:00pm 17.1 12.1 4.8 44 5.8 ESE 20 26 11 14 1030.7 1030.8 0.0
04/02:30pm 17.1 12.1 4.8 44 5.9 ESE 20 28 11 15 1030.8 1030.9 0.0
04/02:00pm 17.1 13.1 4.8 44 5.8 E 15 24 8 13 1030.9 1031.0 0.0
04/01:30pm 17.2 12.7 4.4 42 6.0 ENE 17 24 9 13 1031.2 1031.3 0.0
04/01:00pm 17.0 12.2 4.7 44 5.8 NE 19 24 10 13 1031.6 1031.7 0.0
04/12:30pm 17.1 12.4 5.1 45 5.7 ENE 19 28 10 15 1032.2 1032.3 0.0
04/12:00pm 16.1 11.1 4.5 46 5.4 ENE 20 28 11 15 1032.6 1032.7 0.0
04/11:30am 15.3 12.6 5.8 53 4.6 E 9 17 5 9 1033.3 1033.4 0.0
04/11:00am 14.9 11.9 6.1 55 4.2 E 11 17 6 9 1033.8 1033.9 0.0
04/10:30am 14.2 10.3 5.4 55 4.1 ENE 15 20 8 11 1034.1 1034.2 0.0
04/10:00am 13.5 10.0 5.6 59 3.7 E 13 20 7 11 1034.4 1034.5 0.0
04/09:30am 12.2 9.2 6.0 66 2.9 E 11 15 6 8 1034.4 1034.5 0.0
04/09:00am 11.2 6.7 6.0 70 2.4 E 19 24 10 13 1034.2 1034.3 0.0
04/08:30am 10.3 6.6 6.2 76 1.9 E 15 20 8 11 1034.0 1034.1 0.0
04/08:00am 9.8 6.4 5.8 76 1.8 ESE 13 20 7 11 1034.2 1034.3 0.0
04/07:30am 7.5 4.4 5.5 87 0.9 ESE 11 13 6 7 1033.8 1033.9 0.0
04/07:00am 7.2 4.8 5.4 88 0.8 ESE 7 11 4 6 1033.4 1033.5 0.0
04/06:30am 8.5 5.4 5.6 82 1.3 E 11 15 6 8 1033.4 1033.5 0.0
04/06:00am 8.8 5.4 5.7 81 1.4 ESE 13 15 7 8 1033.2 1033.3 0.0
04/05:30am 8.3 5.2 5.4 82 1.3 ESE 11 13 6 7 1033.1 1033.2 0.0
04/05:00am 9.0 6.4 5.9 81 1.4 E 9 11 5 6 1033.0 1033.1 0.0
04/04:30am 9.6 6.6 5.9 78 1.7 ESE 11 15 6 8 1032.9 1033.0 0.0
04/04:00am 9.1 5.7 5.8 80 1.5 ESE 13 20 7 11 1032.8 1032.9 0.0
04/03:30am 8.6 5.3 6.2 85 1.1 SE 13 17 7 9 1032.8 1032.9 0.0
04/03:00am 7.3 4.7 6.0 91 0.6 SE 9 11 5 6 1032.9 1033.0 0.0
04/02:30am 7.0 4.7 5.6 91 0.6 SE 7 9 4 5 1032.9 1033.0 0.0
04/02:00am 8.0 6.4 6.2 88 0.8 SE 4 7 2 4 1033.0 1033.1 0.0
04/01:30am 8.7 6.6 6.5 86 1.0 SSE 7 7 4 4 1032.9 1033.0 0.0
04/01:00am 8.8 5.9 6.4 85 1.1 SSE 11 13 6 7 1032.8 1032.9 0.0
04/12:30am 8.6 6.1 6.4 86 1.0 SSE 9 11 5 6 1033.1 1033.2 0.0
04/12:00am 8.1 5.1 6.1 87 0.9 SSE 11 13 6 7 1033.2 1033.3 0.0
 
Date/Time
WST
Tmp

°C
App
Tmp
°C
Dew
Point
°C
Rel
Hum
%
Delta-T

°C
Wind Press
QNH
hPa
Press
MSL
hPa
Rain
since
9 am
mm
Dir
 
Spd
km/h
Gust
km/h
Spd
kts
Gust
kts
03/11:30pm 8.3 5.7 6.3 87 0.9 SSE 9 11 5 6 1033.5 1033.6 0.0
03/11:00pm 8.6 6.1 6.4 86 1.0 SSE 9 13 5 7 1033.6 1033.7 0.0
03/10:30pm 9.0 6.9 6.6 85 1.1 SSE 7 9 4 5 1033.8 1033.9 0.0
03/10:00pm 10.1 7.6 6.7 79 1.6 SSE 9 11 5 6 1034.0 1034.1 0.0
03/09:30pm 9.8 7.4 6.8 81 1.4 SE 9 11 5 6 1034.0 1034.1 0.0
03/09:00pm 10.9 8.4 6.6 75 2.0 ESE 9 11 5 6 1034.0 1034.1 0.0
03/08:30pm 11.2 8.7 6.7 74 2.1 E 9 13 5 7 1033.6 1033.7 0.0
03/08:00pm 11.2 8.8 7.0 75 2.0 ESE 9 11 5 6 1033.5 1033.6 0.0
03/07:30pm 12.1 9.3 6.8 70 2.5 ESE 11 11 6 6 1033.4 1033.5 0.0
03/07:00pm 12.9 9.7 6.8 66 2.9 E 13 15 7 8 1033.1 1033.2 0.0
03/06:30pm 13.0 10.2 6.9 66 2.9 E 11 13 6 7 1033.1 1033.2 0.0
03/06:00pm 13.6 10.7 6.7 63 3.3 ESE 11 13 6 7 1033.0 1033.1 0.0
03/05:30pm 14.4 11.3 7.2 62 3.5 ESE 13 13 7 7 1032.6 1032.7 0.0
03/05:00pm 15.6 12.4 6.7 55 4.3 SE 13 17 7 9 1032.5 1032.6 0.0
03/04:30pm 16.6 13.3 6.5 51 5.0 E 13 17 7 9 1032.4 1032.5 0.0
03/04:00pm 17.0 14.0 6.0 48 5.3 E 11 17 6 9 1032.4 1032.5 0.0
03/03:30pm 17.4 14.2 5.3 45 5.8 ESE 11 17 6 9 1032.5 1032.6 0.0
03/03:00pm 17.6 13.7 5.5 45 5.8 E 15 24 8 13 1032.5 1032.6 0.0
03/02:30pm 17.6 14.1 5.5 45 5.9 E 13 20 7 11 1032.7 1032.8 0.0
03/02:00pm 17.1 13.1 5.1 45 5.7 ESE 15 22 8 12 1032.8 1032.9 0.0
03/01:30pm 17.1 13.3 5.6 46 5.6 ESE 15 22 8 12 1032.9 1033.0 0.0
03/01:00pm 16.4 14.5 6.5 52 4.8 SE 6 13 3 7 1033.4 1033.5 0.0
03/12:30pm 16.3 13.8 6.6 52 4.8 ESE 9 20 5 11 1033.9 1034.0 0.0
03/12:00pm 16.2 12.8 5.7 49 5.0 ENE 13 19 7 10 1034.6 1034.6 0.0
03/11:30am 16.0 12.9 5.7 50 5.0 E 11 17 6 9 1035.0 1035.0 0.0
03/11:00am 15.2 11.4 6.0 54 4.4 SE 15 20 8 11 1035.4 1035.4 0.0
03/10:30am 14.8 12.2 6.2 56 4.1 E 9 15 5 8 1035.7 1035.7 0.0
03/10:00am 13.8 11.3 6.4 61 3.5 E 9 15 5 8 1036.0 1036.0 0.0
03/09:30am 12.8 10.5 7.4 69 2.6 E 9 13 5 7 1036.0 1036.0 0.0
03/09:00am 11.4 8.2 7.0 74 2.1 ESE 13 17 7 9 1035.8 1035.8 0.0
03/08:30am 10.0 6.8 7.0 81 1.4 ESE 13 15 7 8 1035.7 1035.7 0.0
03/08:00am 8.4 5.4 6.2 86 1.0 ESE 11 13 6 7 1035.5 1035.5 0.0
03/07:30am 5.5 1.8 4.6 94 0.4 ESE 13 15 7 8 1035.2 1035.2 0.0
03/07:00am 5.4 1.6 4.0 91 0.6 SE 13 17 7 9 1034.8 1034.8 0.0
03/06:30am 3.8 -0.2 2.8 93 0.4 SE 13 15 7 8 1034.6 1034.6 0.0
03/06:00am 3.0 -0.3 2.2 94 0.3 SE 9 11 5 6 1034.2 1034.3 0.0
03/05:30am 2.7 -0.1 1.9 94 0.3 SSE 6 7 3 4 1034.1 1034.2 0.0
03/05:00am 3.2 0.8 2.4 94 0.3 SSE 4 9 2 5 1034.1 1034.2 0.0
03/04:30am 3.9 0.7 3.2 95 0.3 SSE 9 11 5 6 1034.0 1034.1 0.0
03/04:00am 4.0 1.2 3.3 95 0.3 SSE 7 11 4 6 1034.2 1034.3 0.0
03/03:30am 4.3 1.1 3.3 93 0.4 SSE 9 11 5 6 1034.4 1034.5 0.0
03/03:00am 2.9 -0.1 1.9 93 0.4 SSE 7 9 4 5 1034.6 1034.6 0.0
03/02:30am 3.0 0.2 2.0 93 0.4 SSE 6 9 3 5 1034.8 1034.8 0.0
03/02:00am 3.4 0.5 2.4 93 0.4 SSE 7 7 4 4 1034.9 1034.9 0.0
03/01:30am 3.7 1.0 2.4 91 0.5 SSE 6 7 3 4 1034.8 1034.8 0.0
03/01:00am 4.4 2.9 3.2 92 0.5 CALM 0 0 0 0 1034.7 1034.7 0.0
03/12:30am 4.0 2.4 2.7 91 0.5 CALM 0 0 0 0 1034.3 1034.4 0.0
03/12:00am 4.5 1.7 3.0 90 0.6 SSE 7 9 4 5 1034.3 1034.4 0.0
 
Date/Time
WST
Tmp

°C
App
Tmp
°C
Dew
Point
°C
Rel
Hum
%
Delta-T

°C
Wind Press
QNH
hPa
Press
MSL
hPa
Rain
since
9 am
mm
Dir
 
Spd
km/h
Gust
km/h
Spd
kts
Gust
kts
02/11:30pm 5.1 2.1 3.9 92 0.5 SSE 9 11 5 6 1034.6 1034.6 0.0
02/11:00pm 5.2 2.5 3.8 91 0.6 SE 7 9 4 5 1034.7 1034.7 0.0
02/10:30pm 5.7 2.7 4.3 91 0.6 ESE 9 11 5 6 1034.6 1034.6 0.0
02/10:00pm 5.6 2.6 3.9 89 0.7 SE 9 11 5 6 1034.8 1034.8 0.0
02/09:30pm 6.8 5.3 5.2 89 0.7 E 2 7 1 4 1034.9 1034.9 0.0
02/09:00pm 7.7 5.3 5.2 84 1.1 ESE 7 7 4 4 1034.7 1034.7 0.0
02/08:30pm 8.4 5.7 5.5 82 1.3 ESE 9 9 5 5 1034.6 1034.6 0.0
02/08:00pm 8.7 5.9 5.3 79 1.5 ESE 9 11 5 6 1034.4 1034.5 0.0
02/07:30pm 9.4 6.3 5.4 76 1.8 E 11 13 6 7 1034.2 1034.3 0.0
02/07:00pm 10.3 7.6 5.4 71 2.2 E 9 11 5 6 1034.1 1034.2 0.0
02/06:30pm 11.8 8.7 5.7 66 2.8 E 11 11 6 6 1033.8 1033.9 0.0
02/06:00pm 12.5 9.4 5.6 63 3.2 E 11 13 6 7 1033.4 1033.5 0.0
02/05:30pm 14.0 10.9 5.4 56 4.0 E 11 17 6 9 1033.0 1033.1 0.0
02/05:00pm 15.3 11.3 4.8 49 4.9 E 15 19 8 10 1032.7 1032.8 0.0
02/04:30pm 15.9 11.3 3.9 44 5.6 E 17 22 9 12 1032.4 1032.5 0.0
02/04:00pm 16.4 12.3 4.4 45 5.6 E 15 22 8 12 1032.2 1032.3 0.0
02/03:30pm 16.5 11.9 3.6 42 6.0 ESE 17 26 9 14 1031.9 1032.0 0.0
02/03:00pm 16.5 12.3 3.6 42 5.9 E 15 24 8 13 1031.9 1032.0 0.0
02/02:30pm 16.3 12.0 3.3 42 6.0 E 15 26 8 14 1031.9 1032.0 0.0
02/02:00pm 15.9 11.2 3.0 42 5.8 ESE 17 28 9 15 1032.1 1032.2 0.0
02/01:30pm 15.7 11.0 3.3 43 5.7 E 17 24 9 13 1032.3 1032.4 0.0
02/01:00pm 15.7 11.1 3.6 44 5.5 E 17 30 9 16 1032.7 1032.8 0.0
02/12:30pm 14.7 10.4 3.0 45 5.3 ESE 15 20 8 11 1033.3 1033.4 0.0
02/12:00pm 14.5 9.4 3.3 47 5.0 ENE 19 24 10 13 1033.8 1033.9 0.0
02/11:30am 14.0 9.6 2.9 47 5.0 ESE 15 20 8 11 1034.3 1034.4 0.0
02/11:00am 13.4 8.2 2.6 48 4.7 E 19 28 10 15 1034.7 1034.7 0.0
02/10:30am 13.0 7.9 3.0 50 4.4 E 19 26 10 14 1034.7 1034.7 0.0
02/10:00am 12.9 7.6 2.8 50 4.4 E 20 28 11 15 1034.9 1034.9 0.0
02/09:30am 11.6 7.0 3.9 59 3.4 SE 17 22 9 12 1034.8 1034.8 0.0
02/09:00am 10.9 7.7 4.9 66 2.7 SE 11 15 6 8 1034.7 1034.7 0.0
02/08:30am 9.3 6.8 6.5 83 1.3 SE 9 11 5 6 1034.3 1034.4 0.0
02/08:00am 8.1 5.4 5.6 84 1.1 SSE 9 11 5 6 1034.0 1034.1 0.0
02/07:30am 7.1 4.8 5.7 91 0.6 SE 7 9 4 5 1033.8 1033.9 0.0
02/07:00am 6.6 4.3 5.7 94 0.4 SE 7 9 4 5 1033.3 1033.4 0.0
02/06:30am 6.2 3.7 5.0 92 0.5 ESE 7 11 4 6 1033.0 1033.1 0.0
02/06:00am 5.4 2.5 4.7 95 0.3 SE 9 11 5 6 1032.4 1032.5 0.0
02/05:30am 4.3 2.6 3.8 97 0.2 S 2 9 1 5 1032.3 1032.4 0.0
02/05:00am 3.1 1.5 2.6 96 0.2 CALM 0 0 0 0 1032.2 1032.3 0.0
02/04:30am 2.6 -0.2 1.8 94 0.3 SSE 6 7 3 4 1031.7 1031.8 0.0
02/04:00am 3.2 0.3 2.7 96 0.2 SSE 7 7 4 4 1031.7 1031.8 0.0
02/03:30am 4.0 1.4 3.3 95 0.3 SSE 6 7 3 4 1031.9 1032.0 0.0
02/03:00am 4.6 2.4 3.6 93 0.4 SE 4 9 2 5 1031.6 1031.7 0.0
02/02:30am 5.1 3.5 4.6 97 0.2 ESE 2 6 1 3 1031.6 1031.7 0.0
02/02:00am 4.5 1.8 3.8 95 0.3 SE 7 9 4 5 1031.5 1031.6 0.0
02/01:30am 5.1 3.4 4.1 93 0.4 SE 2 7 1 4 1031.4 1031.5 0.0
02/01:00am 5.3 2.9 4.4 94 0.4 ESE 6 9 3 5 1031.4 1031.5 0.0
02/12:30am 4.9 2.4 3.9 93 0.4 ESE 6 9 3 5 1031.3 1031.4 0.0
02/12:00am 5.9 4.3 4.5 91 0.6 ESE 2 6 1 3 1031.2 1031.3 0.0
 
Date/Time
WST
Tmp

°C
App
Tmp
°C
Dew
Point
°C
Rel
Hum
%
Delta-T

°C
Wind Press
QNH
hPa
Press
MSL
hPa
Rain
since
9 am
mm
Dir
 
Spd
km/h
Gust
km/h
Spd
kts
Gust
kts
01/11:30pm 6.1 3.8 4.7 91 0.6 SE 6 7 3 4 1031.1 1031.2 0.0
01/11:00pm 7.0 4.6 5.4 89 0.7 SSE 7 9 4 5 1030.9 1031.0 0.0
01/10:30pm 7.5 5.2 5.5 87 0.9 SE 7 11 4 6 1030.7 1030.8 0.0
01/10:00pm 7.5 4.7 5.2 85 1.0 SE 9 9 5 5 1030.6 1030.7 0.0

Latest Capital City Observations: Canberra | Sydney | Melbourne | Brisbane | Adelaide | Perth | Hobart | Darwin

Other Formats:

Comma delimited format used in spreadsheet applications
http://www.bom.gov.au/fwo/IDW60901/IDW60901.94609.axf

JavaScript Object Notation format (JSON) in row-major order
http://www.bom.gov.au/fwo/IDW60901/IDW60901.94609.json